sensor_id;sensor_type;location;lat;lon;timestamp;temperature;humidity
7234;DHT22;3658;47.992;10.158;2023-08-30T00:01:36;21.40;61.40
7234;DHT22;3658;47.992;10.158;2023-08-30T00:04:03;21.40;61.40
7234;DHT22;3658;47.992;10.158;2023-08-30T00:06:30;21.40;61.40
7234;DHT22;3658;47.992;10.158;2023-08-30T00:08:57;21.40;61.40
7234;DHT22;3658;47.992;10.158;2023-08-30T00:11:25;21.40;61.40
7234;DHT22;3658;47.992;10.158;2023-08-30T00:13:52;21.40;61.40
7234;DHT22;3658;47.992;10.158;2023-08-30T00:16:19;21.40;61.40
7234;DHT22;3658;47.992;10.158;2023-08-30T00:18:46;21.40;61.40
7234;DHT22;3658;47.992;10.158;2023-08-30T00:21:13;21.40;61.40
7234;DHT22;3658;47.992;10.158;2023-08-30T00:23:41;21.40;61.40
7234;DHT22;3658;47.992;10.158;2023-08-30T00:26:07;21.40;61.40
7234;DHT22;3658;47.992;10.158;2023-08-30T00:28:35;21.40;61.40
7234;DHT22;3658;47.992;10.158;2023-08-30T00:31:02;21.40;61.40
7234;DHT22;3658;47.992;10.158;2023-08-30T00:33:29;21.30;61.30
7234;DHT22;3658;47.992;10.158;2023-08-30T00:35:56;21.30;61.20
7234;DHT22;3658;47.992;10.158;2023-08-30T00:38:24;21.30;61.20
7234;DHT22;3658;47.992;10.158;2023-08-30T00:40:50;21.40;61.30
7234;DHT22;3658;47.992;10.158;2023-08-30T00:43:17;21.30;61.90
7234;DHT22;3658;47.992;10.158;2023-08-30T00:45:47;21.40;61.30
7234;DHT22;3658;47.992;10.158;2023-08-30T00:48:14;21.30;61.20
7234;DHT22;3658;47.992;10.158;2023-08-30T00:50:42;21.40;61.40
7234;DHT22;3658;47.992;10.158;2023-08-30T00:53:09;21.30;61.20
7234;DHT22;3658;47.992;10.158;2023-08-30T00:55:37;21.30;61.20
7234;DHT22;3658;47.992;10.158;2023-08-30T00:58:05;21.30;61.30
7234;DHT22;3658;47.992;10.158;2023-08-30T01:00:33;21.30;61.20
7234;DHT22;3658;47.992;10.158;2023-08-30T01:03:01;21.30;61.20
7234;DHT22;3658;47.992;10.158;2023-08-30T01:05:29;21.30;61.20
7234;DHT22;3658;47.992;10.158;2023-08-30T01:07:56;21.30;61.20
7234;DHT22;3658;47.992;10.158;2023-08-30T01:10:30;21.30;61.20
7234;DHT22;3658;47.992;10.158;2023-08-30T01:13:09;21.30;61.20
7234;DHT22;3658;47.992;10.158;2023-08-30T01:15:38;21.30;61.20
7234;DHT22;3658;47.992;10.158;2023-08-30T01:18:07;21.30;61.20
7234;DHT22;3658;47.992;10.158;2023-08-30T01:20:37;21.30;61.20
7234;DHT22;3658;47.992;10.158;2023-08-30T01:23:06;21.30;61.20
7234;DHT22;3658;47.992;10.158;2023-08-30T01:25:43;21.30;61.10
7234;DHT22;3658;47.992;10.158;2023-08-30T01:28:15;21.30;61.10
7234;DHT22;3658;47.992;10.158;2023-08-30T01:30:43;21.30;61.10
7234;DHT22;3658;47.992;10.158;2023-08-30T01:33:13;21.30;61.10
7234;DHT22;3658;47.992;10.158;2023-08-30T01:35:41;21.30;61.10
7234;DHT22;3658;47.992;10.158;2023-08-30T01:38:09;21.30;61.20
7234;DHT22;3658;47.992;10.158;2023-08-30T01:40:39;21.30;61.20
7234;DHT22;3658;47.992;10.158;2023-08-30T01:43:07;21.30;61.10
7234;DHT22;3658;47.992;10.158;2023-08-30T01:45:40;21.30;61.10
7234;DHT22;3658;47.992;10.158;2023-08-30T01:48:09;21.30;61.10
7234;DHT22;3658;47.992;10.158;2023-08-30T01:50:38;21.30;61.10
7234;DHT22;3658;47.992;10.158;2023-08-30T01:53:05;21.30;61.10
7234;DHT22;3658;47.992;10.158;2023-08-30T01:55:35;21.20;61.00
7234;DHT22;3658;47.992;10.158;2023-08-30T01:58:03;21.30;61.10
7234;DHT22;3658;47.992;10.158;2023-08-30T02:00:30;21.30;61.10
7234;DHT22;3658;47.992;10.158;2023-08-30T02:02:58;21.30;61.10
7234;DHT22;3658;47.992;10.158;2023-08-30T02:05:25;21.20;61.00
7234;DHT22;3658;47.992;10.158;2023-08-30T02:07:57;21.30;61.10
7234;DHT22;3658;47.992;10.158;2023-08-30T02:10:27;21.30;61.10
7234;DHT22;3658;47.992;10.158;2023-08-30T02:12:55;21.30;61.10
7234;DHT22;3658;47.992;10.158;2023-08-30T02:15:24;21.30;61.10
7234;DHT22;3658;47.992;10.158;2023-08-30T02:17:52;21.30;61.10
7234;DHT22;3658;47.992;10.158;2023-08-30T02:20:20;21.30;61.10
7234;DHT22;3658;47.992;10.158;2023-08-30T02:22:48;21.20;61.00
7234;DHT22;3658;47.992;10.158;2023-08-30T02:25:14;21.20;61.00
7234;DHT22;3658;47.992;10.158;2023-08-30T02:27:41;21.20;61.00
7234;DHT22;3658;47.992;10.158;2023-08-30T02:30:09;21.20;61.00
7234;DHT22;3658;47.992;10.158;2023-08-30T02:32:35;21.20;61.00
7234;DHT22;3658;47.992;10.158;2023-08-30T02:35:03;21.30;61.10
7234;DHT22;3658;47.992;10.158;2023-08-30T02:37:31;21.20;61.00
7234;DHT22;3658;47.992;10.158;2023-08-30T02:39:58;21.20;61.10
7234;DHT22;3658;47.992;10.158;2023-08-30T02:42:24;21.20;61.00
7234;DHT22;3658;47.992;10.158;2023-08-30T02:44:52;21.20;61.00
7234;DHT22;3658;47.992;10.158;2023-08-30T02:47:18;21.20;61.10
7234;DHT22;3658;47.992;10.158;2023-08-30T02:49:45;21.20;61.10
7234;DHT22;3658;47.992;10.158;2023-08-30T02:52:12;21.20;61.00
7234;DHT22;3658;47.992;10.158;2023-08-30T02:54:40;21.20;61.00
7234;DHT22;3658;47.992;10.158;2023-08-30T02:57:08;21.20;61.00
7234;DHT22;3658;47.992;10.158;2023-08-30T02:59:34;21.20;61.00
7234;DHT22;3658;47.992;10.158;2023-08-30T03:02:01;21.20;61.00
7234;DHT22;3658;47.992;10.158;2023-08-30T03:04:28;21.20;61.00
7234;DHT22;3658;47.992;10.158;2023-08-30T03:06:55;21.20;61.00
7234;DHT22;3658;47.992;10.158;2023-08-30T03:09:22;21.20;61.00
7234;DHT22;3658;47.992;10.158;2023-08-30T03:11:50;21.20;61.00
7234;DHT22;3658;47.992;10.158;2023-08-30T03:14:17;21.20;61.00
7234;DHT22;3658;47.992;10.158;2023-08-30T03:16:44;21.20;61.00
7234;DHT22;3658;47.992;10.158;2023-08-30T03:19:12;21.20;61.00
7234;DHT22;3658;47.992;10.158;2023-08-30T03:21:39;21.20;61.00
7234;DHT22;3658;47.992;10.158;2023-08-30T03:24:06;21.20;61.00
7234;DHT22;3658;47.992;10.158;2023-08-30T03:26:33;21.20;61.00
7234;DHT22;3658;47.992;10.158;2023-08-30T03:29:01;21.20;61.00
7234;DHT22;3658;47.992;10.158;2023-08-30T03:31:28;21.20;60.90
7234;DHT22;3658;47.992;10.158;2023-08-30T03:33:55;21.20;60.90
7234;DHT22;3658;47.992;10.158;2023-08-30T03:36:22;21.20;61.00
7234;DHT22;3658;47.992;10.158;2023-08-30T03:38:49;21.20;61.00
7234;DHT22;3658;47.992;10.158;2023-08-30T03:41:15;21.20;60.90
7234;DHT22;3658;47.992;10.158;2023-08-30T03:43:42;21.20;60.90
7234;DHT22;3658;47.992;10.158;2023-08-30T03:46:11;21.20;61.00
7234;DHT22;3658;47.992;10.158;2023-08-30T03:48:38;21.20;61.00
7234;DHT22;3658;47.992;10.158;2023-08-30T03:51:04;21.20;61.00
7234;DHT22;3658;47.992;10.158;2023-08-30T03:53:31;21.20;60.90
7234;DHT22;3658;47.992;10.158;2023-08-30T03:55:58;21.10;60.90
7234;DHT22;3658;47.992;10.158;2023-08-30T03:58:25;21.20;61.00
7234;DHT22;3658;47.992;10.158;2023-08-30T04:00:52;21.20;60.90
7234;DHT22;3658;47.992;10.158;2023-08-30T04:03:20;21.10;60.80
7234;DHT22;3658;47.992;10.158;2023-08-30T04:05:47;21.20;60.90
7234;DHT22;3658;47.992;10.158;2023-08-30T04:08:14;21.20;60.90
7234;DHT22;3658;47.992;10.158;2023-08-30T04:10:41;21.20;60.90
7234;DHT22;3658;47.992;10.158;2023-08-30T04:13:09;21.20;61.00
7234;DHT22;3658;47.992;10.158;2023-08-30T04:15:37;21.20;60.90
7234;DHT22;3658;47.992;10.158;2023-08-30T04:18:05;21.20;60.90
7234;DHT22;3658;47.992;10.158;2023-08-30T04:20:33;21.10;60.80
7234;DHT22;3658;47.992;10.158;2023-08-30T04:23:00;21.10;60.80
7234;DHT22;3658;47.992;10.158;2023-08-30T04:25:28;21.10;60.80
7234;DHT22;3658;47.992;10.158;2023-08-30T04:27:55;21.10;60.80
7234;DHT22;3658;47.992;10.158;2023-08-30T04:30:22;21.10;60.80
7234;DHT22;3658;47.992;10.158;2023-08-30T04:32:49;21.10;60.80
7234;DHT22;3658;47.992;10.158;2023-08-30T04:35:16;21.20;60.80
7234;DHT22;3658;47.992;10.158;2023-08-30T04:37:45;21.10;60.80
7234;DHT22;3658;47.992;10.158;2023-08-30T04:40:12;21.10;60.80
7234;DHT22;3658;47.992;10.158;2023-08-30T04:42:39;21.10;60.80
7234;DHT22;3658;47.992;10.158;2023-08-30T04:45:07;21.10;60.70
7234;DHT22;3658;47.992;10.158;2023-08-30T04:47:35;21.10;60.80
7234;DHT22;3658;47.992;10.158;2023-08-30T04:50:02;21.10;60.80
7234;DHT22;3658;47.992;10.158;2023-08-30T04:52:29;21.10;60.80
7234;DHT22;3658;47.992;10.158;2023-08-30T04:54:57;21.10;60.80
7234;DHT22;3658;47.992;10.158;2023-08-30T04:57:24;21.10;60.80
7234;DHT22;3658;47.992;10.158;2023-08-30T04:59:50;21.10;60.80
7234;DHT22;3658;47.992;10.158;2023-08-30T05:02:17;21.10;60.70
7234;DHT22;3658;47.992;10.158;2023-08-30T05:04:44;21.10;60.70
7234;DHT22;3658;47.992;10.158;2023-08-30T05:07:11;21.10;60.80
7234;DHT22;3658;47.992;10.158;2023-08-30T05:09:38;21.10;60.80
7234;DHT22;3658;47.992;10.158;2023-08-30T05:12:08;21.10;60.80
7234;DHT22;3658;47.992;10.158;2023-08-30T05:14:34;21.10;60.80
7234;DHT22;3658;47.992;10.158;2023-08-30T05:17:02;21.10;60.80
7234;DHT22;3658;47.992;10.158;2023-08-30T05:19:29;21.10;60.80
7234;DHT22;3658;47.992;10.158;2023-08-30T05:21:56;21.10;60.80
7234;DHT22;3658;47.992;10.158;2023-08-30T05:24:22;21.10;60.80
7234;DHT22;3658;47.992;10.158;2023-08-30T05:26:49;21.10;60.80
7234;DHT22;3658;47.992;10.158;2023-08-30T05:29:18;21.10;60.80
7234;DHT22;3658;47.992;10.158;2023-08-30T05:31:44;21.10;60.80
7234;DHT22;3658;47.992;10.158;2023-08-30T05:34:11;21.10;60.80
7234;DHT22;3658;47.992;10.158;2023-08-30T05:36:38;21.10;60.70
7234;DHT22;3658;47.992;10.158;2023-08-30T05:39:05;21.10;60.70
7234;DHT22;3658;47.992;10.158;2023-08-30T05:41:32;21.10;60.80
7234;DHT22;3658;47.992;10.158;2023-08-30T05:43:59;21.10;60.70
7234;DHT22;3658;47.992;10.158;2023-08-30T05:46:27;21.10;60.80
7234;DHT22;3658;47.992;10.158;2023-08-30T05:48:54;21.10;60.70
7234;DHT22;3658;47.992;10.158;2023-08-30T05:51:21;21.10;60.70
7234;DHT22;3658;47.992;10.158;2023-08-30T05:53:48;21.10;60.70
7234;DHT22;3658;47.992;10.158;2023-08-30T05:56:15;21.10;60.80
7234;DHT22;3658;47.992;10.158;2023-08-30T05:58:42;21.10;60.70
7234;DHT22;3658;47.992;10.158;2023-08-30T06:01:09;21.10;60.70
7234;DHT22;3658;47.992;10.158;2023-08-30T06:03:37;21.10;60.80
7234;DHT22;3658;47.992;10.158;2023-08-30T06:06:04;21.10;60.70
7234;DHT22;3658;47.992;10.158;2023-08-30T06:08:31;21.10;60.70
7234;DHT22;3658;47.992;10.158;2023-08-30T06:10:58;21.10;60.70
7234;DHT22;3658;47.992;10.158;2023-08-30T06:13:25;21.10;60.70
7234;DHT22;3658;47.992;10.158;2023-08-30T06:15:52;21.10;60.70
7234;DHT22;3658;47.992;10.158;2023-08-30T06:18:19;21.10;60.70
7234;DHT22;3658;47.992;10.158;2023-08-30T06:20:47;21.10;60.70
7234;DHT22;3658;47.992;10.158;2023-08-30T06:23:14;21.10;60.80
7234;DHT22;3658;47.992;10.158;2023-08-30T06:25:41;21.10;60.70
7234;DHT22;3658;47.992;10.158;2023-08-30T06:28:09;21.10;60.90
7234;DHT22;3658;47.992;10.158;2023-08-30T06:30:35;21.20;62.10
7234;DHT22;3658;47.992;10.158;2023-08-30T06:33:03;21.30;61.50
7234;DHT22;3658;47.992;10.158;2023-08-30T06:35:30;21.30;61.60
7234;DHT22;3658;47.992;10.158;2023-08-30T06:37:59;21.30;61.70
7234;DHT22;3658;47.992;10.158;2023-08-30T06:40:25;21.30;61.80
7234;DHT22;3658;47.992;10.158;2023-08-30T06:42:52;21.30;61.60
7234;DHT22;3658;47.992;10.158;2023-08-30T06:45:19;21.30;61.60
7234;DHT22;3658;47.992;10.158;2023-08-30T06:47:48;21.30;61.60
7234;DHT22;3658;47.992;10.158;2023-08-30T06:50:14;21.30;61.60
7234;DHT22;3658;47.992;10.158;2023-08-30T06:52:41;21.30;61.70
7234;DHT22;3658;47.992;10.158;2023-08-30T06:55:09;21.30;61.70
7234;DHT22;3658;47.992;10.158;2023-08-30T06:57:36;21.30;61.70
7234;DHT22;3658;47.992;10.158;2023-08-30T07:00:05;21.30;61.70
7234;DHT22;3658;47.992;10.158;2023-08-30T07:02:34;21.30;61.80
7234;DHT22;3658;47.992;10.158;2023-08-30T07:05:01;21.30;62.60
7234;DHT22;3658;47.992;10.158;2023-08-30T07:07:30;21.30;63.00
7234;DHT22;3658;47.992;10.158;2023-08-30T07:09:57;21.40;63.10
7234;DHT22;3658;47.992;10.158;2023-08-30T07:12:25;21.40;63.80
7234;DHT22;3658;47.992;10.158;2023-08-30T07:14:52;21.40;63.00
7234;DHT22;3658;47.992;10.158;2023-08-30T07:17:19;21.40;63.00
7234;DHT22;3658;47.992;10.158;2023-08-30T07:19:46;21.40;62.90
7234;DHT22;3658;47.992;10.158;2023-08-30T07:22:13;21.40;63.00
7234;DHT22;3658;47.992;10.158;2023-08-30T07:24:42;21.40;62.90
7234;DHT22;3658;47.992;10.158;2023-08-30T07:27:08;21.40;62.90
7234;DHT22;3658;47.992;10.158;2023-08-30T07:29:36;21.40;62.80
7234;DHT22;3658;47.992;10.158;2023-08-30T07:32:04;21.40;63.00
7234;DHT22;3658;47.992;10.158;2023-08-30T07:34:31;21.50;62.50
7234;DHT22;3658;47.992;10.158;2023-08-30T07:36:58;21.50;62.10
7234;DHT22;3658;47.992;10.158;2023-08-30T07:39:24;21.60;61.90
7234;DHT22;3658;47.992;10.158;2023-08-30T07:41:51;21.80;61.60
7234;DHT22;3658;47.992;10.158;2023-08-30T07:44:18;21.90;61.40
7234;DHT22;3658;47.992;10.158;2023-08-30T07:46:47;21.90;61.10
7234;DHT22;3658;47.992;10.158;2023-08-30T07:49:13;21.90;61.10
7234;DHT22;3658;47.992;10.158;2023-08-30T07:51:40;21.90;60.50
7234;DHT22;3658;47.992;10.158;2023-08-30T07:54:07;21.90;61.20
7234;DHT22;3658;47.992;10.158;2023-08-30T07:56:34;21.90;61.10
7234;DHT22;3658;47.992;10.158;2023-08-30T07:59:01;22.00;61.00
7234;DHT22;3658;47.992;10.158;2023-08-30T08:01:28;22.00;61.00
7234;DHT22;3658;47.992;10.158;2023-08-30T08:03:57;21.90;61.10
7234;DHT22;3658;47.992;10.158;2023-08-30T08:06:23;21.90;61.00
7234;DHT22;3658;47.992;10.158;2023-08-30T08:08:50;21.90;61.20
7234;DHT22;3658;47.992;10.158;2023-08-30T08:11:17;22.00;61.40
7234;DHT22;3658;47.992;10.158;2023-08-30T08:13:44;22.00;61.30
7234;DHT22;3658;47.992;10.158;2023-08-30T08:16:11;22.00;61.30
7234;DHT22;3658;47.992;10.158;2023-08-30T08:18:38;22.00;61.30
7234;DHT22;3658;47.992;10.158;2023-08-30T08:21:06;21.90;61.50
7234;DHT22;3658;47.992;10.158;2023-08-30T08:23:33;22.00;61.50
7234;DHT22;3658;47.992;10.158;2023-08-30T08:26:00;22.00;61.50
7234;DHT22;3658;47.992;10.158;2023-08-30T08:28:28;21.90;61.50
7234;DHT22;3658;47.992;10.158;2023-08-30T08:30:55;21.90;62.40
7234;DHT22;3658;47.992;10.158;2023-08-30T08:33:21;21.90;61.70
7234;DHT22;3658;47.992;10.158;2023-08-30T08:35:49;21.90;61.70
7234;DHT22;3658;47.992;10.158;2023-08-30T08:38:17;21.90;61.80
7234;DHT22;3658;47.992;10.158;2023-08-30T08:40:44;21.90;61.80
7234;DHT22;3658;47.992;10.158;2023-08-30T08:43:11;21.90;62.00
7234;DHT22;3658;47.992;10.158;2023-08-30T08:45:38;21.90;62.00
7234;DHT22;3658;47.992;10.158;2023-08-30T08:48:06;21.90;62.20
7234;DHT22;3658;47.992;10.158;2023-08-30T08:50:33;21.90;62.00
7234;DHT22;3658;47.992;10.158;2023-08-30T08:53:01;21.90;62.40
7234;DHT22;3658;47.992;10.158;2023-08-30T08:55:30;21.90;62.10
7234;DHT22;3658;47.992;10.158;2023-08-30T08:57:58;21.90;62.00
7234;DHT22;3658;47.992;10.158;2023-08-30T09:00:25;21.90;62.00
7234;DHT22;3658;47.992;10.158;2023-08-30T09:02:53;21.90;61.80
7234;DHT22;3658;47.992;10.158;2023-08-30T09:05:20;21.90;61.90
7234;DHT22;3658;47.992;10.158;2023-08-30T09:07:48;21.90;62.10
7234;DHT22;3658;47.992;10.158;2023-08-30T09:10:19;21.90;62.20
7234;DHT22;3658;47.992;10.158;2023-08-30T09:12:47;21.90;62.00
7234;DHT22;3658;47.992;10.158;2023-08-30T09:15:14;21.90;61.90
7234;DHT22;3658;47.992;10.158;2023-08-30T09:17:41;21.90;62.20
7234;DHT22;3658;47.992;10.158;2023-08-30T09:20:10;21.90;62.30
7234;DHT22;3658;47.992;10.158;2023-08-30T09:22:41;21.90;62.00
7234;DHT22;3658;47.992;10.158;2023-08-30T09:25:09;21.90;61.90
7234;DHT22;3658;47.992;10.158;2023-08-30T09:27:37;21.90;61.90
7234;DHT22;3658;47.992;10.158;2023-08-30T09:30:09;21.90;61.70
7234;DHT22;3658;47.992;10.158;2023-08-30T09:32:45;21.90;62.10
7234;DHT22;3658;47.992;10.158;2023-08-30T09:35:12;21.80;62.10
7234;DHT22;3658;47.992;10.158;2023-08-30T09:37:39;21.90;62.00
7234;DHT22;3658;47.992;10.158;2023-08-30T09:40:08;21.90;62.20
7234;DHT22;3658;47.992;10.158;2023-08-30T09:42:35;21.90;62.10
7234;DHT22;3658;47.992;10.158;2023-08-30T09:45:17;22.00;62.00
7234;DHT22;3658;47.992;10.158;2023-08-30T09:47:47;21.90;61.90
7234;DHT22;3658;47.992;10.158;2023-08-30T09:50:17;22.00;62.10
7234;DHT22;3658;47.992;10.158;2023-08-30T09:52:44;21.90;62.00
7234;DHT22;3658;47.992;10.158;2023-08-30T09:55:13;21.90;62.00
7234;DHT22;3658;47.992;10.158;2023-08-30T09:57:42;21.90;62.10
7234;DHT22;3658;47.992;10.158;2023-08-30T10:00:11;21.90;62.10
7234;DHT22;3658;47.992;10.158;2023-08-30T10:02:40;21.90;62.40
7234;DHT22;3658;47.992;10.158;2023-08-30T10:05:10;21.90;62.10
7234;DHT22;3658;47.992;10.158;2023-08-30T10:07:38;21.90;62.10
7234;DHT22;3658;47.992;10.158;2023-08-30T10:10:06;21.90;62.10
7234;DHT22;3658;47.992;10.158;2023-08-30T10:12:33;21.90;62.30
7234;DHT22;3658;47.992;10.158;2023-08-30T10:15:00;21.90;62.40
7234;DHT22;3658;47.992;10.158;2023-08-30T10:17:33;21.90;62.30
7234;DHT22;3658;47.992;10.158;2023-08-30T10:20:04;21.90;62.30
7234;DHT22;3658;47.992;10.158;2023-08-30T10:22:32;21.90;62.20
7234;DHT22;3658;47.992;10.158;2023-08-30T10:25:03;21.80;62.00
7234;DHT22;3658;47.992;10.158;2023-08-30T10:27:31;21.80;62.10
7234;DHT22;3658;47.992;10.158;2023-08-30T10:30:01;21.80;62.10
7234;DHT22;3658;47.992;10.158;2023-08-30T10:32:30;21.90;62.20
7234;DHT22;3658;47.992;10.158;2023-08-30T10:35:01;21.90;62.20
7234;DHT22;3658;47.992;10.158;2023-08-30T10:37:29;21.90;62.20
7234;DHT22;3658;47.992;10.158;2023-08-30T10:39:59;21.90;62.20
7234;DHT22;3658;47.992;10.158;2023-08-30T10:42:37;21.80;61.90
7234;DHT22;3658;47.992;10.158;2023-08-30T10:45:06;21.70;61.80
7234;DHT22;3658;47.992;10.158;2023-08-30T10:47:35;21.70;61.80
7234;DHT22;3658;47.992;10.158;2023-08-30T10:50:05;21.70;61.80
7234;DHT22;3658;47.992;10.158;2023-08-30T10:52:32;21.60;61.70
7234;DHT22;3658;47.992;10.158;2023-08-30T10:55:06;21.70;61.80
7234;DHT22;3658;47.992;10.158;2023-08-30T10:57:33;21.60;61.70
7234;DHT22;3658;47.992;10.158;2023-08-30T11:00:10;21.60;61.70
7234;DHT22;3658;47.992;10.158;2023-08-30T11:02:43;21.60;61.70
7234;DHT22;3658;47.992;10.158;2023-08-30T11:05:10;21.70;62.60
7234;DHT22;3658;47.992;10.158;2023-08-30T11:07:37;21.70;62.80
7234;DHT22;3658;47.992;10.158;2023-08-30T11:10:05;21.80;62.90
7234;DHT22;3658;47.992;10.158;2023-08-30T11:12:33;21.80;62.90
7234;DHT22;3658;47.992;10.158;2023-08-30T11:15:01;21.80;62.80
7234;DHT22;3658;47.992;10.158;2023-08-30T11:17:29;21.80;63.00
7234;DHT22;3658;47.992;10.158;2023-08-30T11:20:06;21.80;63.00
7234;DHT22;3658;47.992;10.158;2023-08-30T11:22:34;21.80;63.10
7234;DHT22;3658;47.992;10.158;2023-08-30T11:25:01;21.90;63.10
7234;DHT22;3658;47.992;10.158;2023-08-30T11:27:29;21.90;63.10
7234;DHT22;3658;47.992;10.158;2023-08-30T11:29:59;21.90;63.00
7234;DHT22;3658;47.992;10.158;2023-08-30T11:32:26;21.80;63.00
7234;DHT22;3658;47.992;10.158;2023-08-30T11:34:57;21.90;62.90
7234;DHT22;3658;47.992;10.158;2023-08-30T11:37:27;21.90;63.00
7234;DHT22;3658;47.992;10.158;2023-08-30T11:39:55;21.80;62.90
7234;DHT22;3658;47.992;10.158;2023-08-30T11:42:22;21.90;63.00
7234;DHT22;3658;47.992;10.158;2023-08-30T11:44:49;21.90;62.90
7234;DHT22;3658;47.992;10.158;2023-08-30T11:47:20;21.90;63.00
7234;DHT22;3658;47.992;10.158;2023-08-30T11:49:48;21.90;63.20
7234;DHT22;3658;47.992;10.158;2023-08-30T11:52:17;21.90;63.50
7234;DHT22;3658;47.992;10.158;2023-08-30T11:54:46;21.90;63.40
7234;DHT22;3658;47.992;10.158;2023-08-30T11:57:14;21.90;63.30
7234;DHT22;3658;47.992;10.158;2023-08-30T11:59:41;21.90;63.20
7234;DHT22;3658;47.992;10.158;2023-08-30T12:02:08;21.90;63.10
7234;DHT22;3658;47.992;10.158;2023-08-30T12:04:40;21.90;63.10
7234;DHT22;3658;47.992;10.158;2023-08-30T12:07:07;21.90;63.00
7234;DHT22;3658;47.992;10.158;2023-08-30T12:09:35;21.90;63.00
7234;DHT22;3658;47.992;10.158;2023-08-30T12:12:05;21.90;62.90
7234;DHT22;3658;47.992;10.158;2023-08-30T12:14:33;21.90;62.90
7234;DHT22;3658;47.992;10.158;2023-08-30T12:17:00;21.90;62.90
7234;DHT22;3658;47.992;10.158;2023-08-30T12:19:29;21.90;62.90
7234;DHT22;3658;47.992;10.158;2023-08-30T12:21:55;21.90;62.90
7234;DHT22;3658;47.992;10.158;2023-08-30T12:24:22;21.90;62.90
7234;DHT22;3658;47.992;10.158;2023-08-30T12:26:50;21.90;62.90
7234;DHT22;3658;47.992;10.158;2023-08-30T12:29:17;21.90;62.90
7234;DHT22;3658;47.992;10.158;2023-08-30T12:31:44;21.90;62.80
7234;DHT22;3658;47.992;10.158;2023-08-30T12:34:11;21.90;62.90
7234;DHT22;3658;47.992;10.158;2023-08-30T12:36:38;21.90;62.80
7234;DHT22;3658;47.992;10.158;2023-08-30T12:39:05;21.90;62.60
7234;DHT22;3658;47.992;10.158;2023-08-30T12:41:31;21.80;62.90
7234;DHT22;3658;47.992;10.158;2023-08-30T12:43:59;21.80;63.00
7234;DHT22;3658;47.992;10.158;2023-08-30T12:46:27;21.90;63.10
7234;DHT22;3658;47.992;10.158;2023-08-30T12:48:55;21.80;62.90
7234;DHT22;3658;47.992;10.158;2023-08-30T12:51:21;21.90;63.00
7234;DHT22;3658;47.992;10.158;2023-08-30T12:53:48;21.90;62.90
7234;DHT22;3658;47.992;10.158;2023-08-30T12:56:15;21.90;62.90
7234;DHT22;3658;47.992;10.158;2023-08-30T12:58:42;21.90;62.80
7234;DHT22;3658;47.992;10.158;2023-08-30T13:01:10;21.90;62.90
7234;DHT22;3658;47.992;10.158;2023-08-30T13:03:37;21.80;62.80
7234;DHT22;3658;47.992;10.158;2023-08-30T13:06:04;21.90;63.10
7234;DHT22;3658;47.992;10.158;2023-08-30T13:08:31;21.90;62.50
7234;DHT22;3658;47.992;10.158;2023-08-30T13:10:59;21.80;62.30
7234;DHT22;3658;47.992;10.158;2023-08-30T13:13:26;21.80;62.20
7234;DHT22;3658;47.992;10.158;2023-08-30T13:15:53;21.80;62.20
7234;DHT22;3658;47.992;10.158;2023-08-30T13:18:21;21.70;62.10
7234;DHT22;3658;47.992;10.158;2023-08-30T13:20:48;21.70;62.10
7234;DHT22;3658;47.992;10.158;2023-08-30T13:23:14;21.70;62.30
7234;DHT22;3658;47.992;10.158;2023-08-30T13:25:41;21.70;62.20
7234;DHT22;3658;47.992;10.158;2023-08-30T13:28:08;21.70;62.40
7234;DHT22;3658;47.992;10.158;2023-08-30T13:30:35;21.70;62.10
7234;DHT22;3658;47.992;10.158;2023-08-30T13:33:02;21.70;62.70
7234;DHT22;3658;47.992;10.158;2023-08-30T13:35:30;21.80;62.90
7234;DHT22;3658;47.992;10.158;2023-08-30T13:37:57;21.80;62.80
7234;DHT22;3658;47.992;10.158;2023-08-30T13:40:23;21.80;62.90
7234;DHT22;3658;47.992;10.158;2023-08-30T13:42:51;21.80;62.90
7234;DHT22;3658;47.992;10.158;2023-08-30T13:45:18;21.90;63.00
7234;DHT22;3658;47.992;10.158;2023-08-30T13:47:44;21.90;63.10
7234;DHT22;3658;47.992;10.158;2023-08-30T13:50:12;21.90;63.40
7234;DHT22;3658;47.992;10.158;2023-08-30T13:52:40;21.90;63.70
7234;DHT22;3658;47.992;10.158;2023-08-30T13:55:08;21.90;63.60
7234;DHT22;3658;47.992;10.158;2023-08-30T13:57:35;21.90;63.70
7234;DHT22;3658;47.992;10.158;2023-08-30T14:00:02;21.90;63.50
7234;DHT22;3658;47.992;10.158;2023-08-30T14:02:33;21.90;63.40
7234;DHT22;3658;47.992;10.158;2023-08-30T14:05:00;21.90;63.40
7234;DHT22;3658;47.992;10.158;2023-08-30T14:07:27;21.90;63.20
7234;DHT22;3658;47.992;10.158;2023-08-30T14:09:55;21.90;63.00
7234;DHT22;3658;47.992;10.158;2023-08-30T14:12:22;21.80;62.70
7234;DHT22;3658;47.992;10.158;2023-08-30T14:14:48;21.80;62.80
7234;DHT22;3658;47.992;10.158;2023-08-30T14:17:16;21.80;62.80
7234;DHT22;3658;47.992;10.158;2023-08-30T14:19:42;21.80;62.60
7234;DHT22;3658;47.992;10.158;2023-08-30T14:22:09;21.80;62.60
7234;DHT22;3658;47.992;10.158;2023-08-30T14:24:36;21.70;62.50
7234;DHT22;3658;47.992;10.158;2023-08-30T14:27:05;21.70;62.40
7234;DHT22;3658;47.992;10.158;2023-08-30T14:29:32;21.70;62.40
7234;DHT22;3658;47.992;10.158;2023-08-30T14:31:59;21.70;62.40
7234;DHT22;3658;47.992;10.158;2023-08-30T14:34:27;21.70;62.30
7234;DHT22;3658;47.992;10.158;2023-08-30T14:36:54;21.70;62.30
7234;DHT22;3658;47.992;10.158;2023-08-30T14:39:20;21.60;62.20
7234;DHT22;3658;47.992;10.158;2023-08-30T14:41:47;21.60;62.20
7234;DHT22;3658;47.992;10.158;2023-08-30T14:44:15;21.60;63.60
7234;DHT22;3658;47.992;10.158;2023-08-30T14:46:42;21.60;62.90
7234;DHT22;3658;47.992;10.158;2023-08-30T14:49:09;21.60;62.70
7234;DHT22;3658;47.992;10.158;2023-08-30T14:51:36;21.60;62.80
7234;DHT22;3658;47.992;10.158;2023-08-30T14:54:05;21.60;67.90
7234;DHT22;3658;47.992;10.158;2023-08-30T14:56:32;21.70;66.90
7234;DHT22;3658;47.992;10.158;2023-08-30T14:58:59;21.70;65.80
7234;DHT22;3658;47.992;10.158;2023-08-30T15:01:27;21.60;65.00
7234;DHT22;3658;47.992;10.158;2023-08-30T15:03:54;21.60;64.50
7234;DHT22;3658;47.992;10.158;2023-08-30T15:06:22;21.60;64.30
7234;DHT22;3658;47.992;10.158;2023-08-30T15:08:49;21.60;64.00
7234;DHT22;3658;47.992;10.158;2023-08-30T15:11:15;21.60;63.90
7234;DHT22;3658;47.992;10.158;2023-08-30T15:13:42;21.60;63.90
7234;DHT22;3658;47.992;10.158;2023-08-30T15:16:09;21.60;63.70
7234;DHT22;3658;47.992;10.158;2023-08-30T15:18:37;21.60;63.70
7234;DHT22;3658;47.992;10.158;2023-08-30T15:21:04;21.60;63.70
7234;DHT22;3658;47.992;10.158;2023-08-30T15:23:31;21.60;63.60
7234;DHT22;3658;47.992;10.158;2023-08-30T15:25:57;21.60;63.50
7234;DHT22;3658;47.992;10.158;2023-08-30T15:28:24;21.60;63.30
7234;DHT22;3658;47.992;10.158;2023-08-30T15:30:51;21.60;63.20
7234;DHT22;3658;47.992;10.158;2023-08-30T15:33:18;21.60;63.20
7234;DHT22;3658;47.992;10.158;2023-08-30T15:35:46;21.60;63.20
7234;DHT22;3658;47.992;10.158;2023-08-30T15:38:13;21.60;63.20
7234;DHT22;3658;47.992;10.158;2023-08-30T15:40:41;21.50;63.10
7234;DHT22;3658;47.992;10.158;2023-08-30T15:43:08;21.50;63.20
7234;DHT22;3658;47.992;10.158;2023-08-30T15:45:35;21.50;63.10
7234;DHT22;3658;47.992;10.158;2023-08-30T15:48:02;21.50;63.00